Time;durP1;ratioP1;P1;durP2;ratioP2;P2;SDS_P1;SDS_P2;PMS_P1;PMS_P2;Temp;Humidity;BMP_temperature;BMP_pressure;BME280_temperature;BME280_humidity;BME280_pressure;Samples;Min_cycle;Max_cycle;Signal;HPM_P1;HPM_P2
2021/05/02 00:00:54;;;;;;;;;;;;;;;18.97;64.11;99649.69;4960865;28;19918;-81
2021/05/02 00:03:39;;;;;;;;;;;;;;;18.98;63.97;99650.47;4989763;23;19922;-78
2021/05/02 00:06:23;;;;;;;;;;;;;;;18.98;63.95;99644.97;4964777;28;19918;-78
2021/05/02 00:09:09;;;;;;;;;;;;;;;18.99;64.02;99649.28;4975074;28;19914;-78
2021/05/02 00:14:57;;;;;;;;;;;;;;;18.98;64.01;99661.50;4957397;28;19914;-78
2021/05/02 00:17:45;;;;;;;;;;;;;;;18.98;63.70;99664.25;4961184;28;19914;-78
2021/05/02 00:20:29;;;;;;;;;;;;;;;18.97;63.86;99662.66;4958310;28;19914;-78
2021/05/02 00:23:14;;;;;;;;;;;;;;;18.98;63.90;99661.50;4955937;28;19914;-79
2021/05/02 00:25:59;;;;;;;;;;;;;;;18.98;63.90;99655.97;4961144;28;19919;-77
2021/05/02 00:28:44;;;;;;;;;;;;;;;18.98;63.74;99658.75;4959311;28;19914;-77
2021/05/02 00:31:29;;;;;;;;;;;;;;;18.96;63.88;99656.38;4957375;28;19915;-76
2021/05/02 00:34:14;;;;;;;;;;;;;;;18.95;63.89;99652.03;4956521;28;19914;-77
2021/05/02 00:36:59;;;;;;;;;;;;;;;18.94;63.89;99655.22;4959261;28;19914;-77
2021/05/02 00:39:44;;;;;;;;;;;;;;;18.93;64.04;99662.69;4957449;28;20296;-77
2021/05/02 00:42:29;;;;;;;;;;;;;;;18.93;63.98;99656.38;4954371;28;19918;-77
2021/05/02 00:45:18;;;;;;;;;;;;;;;18.93;63.82;99650.88;4959260;28;19918;-77
2021/05/02 00:48:04;;;;;;;;;;;;;;;18.92;63.88;99652.06;4956593;28;20393;-77
2021/05/02 00:50:56;;;;;;;;;;;;;;;18.90;63.94;99646.94;4955892;28;19918;-79
2021/05/02 00:53:54;;;;;;;;;;;;;;;18.90;64.15;99662.69;4959805;28;19914;-79
2021/05/02 00:56:40;;;;;;;;;;;;;;;18.87;64.10;99655.22;4957855;28;19914;-79
2021/05/02 00:59:31;;;;;;;;;;;;;;;18.86;64.31;99661.91;4961460;28;19918;-79
2021/05/02 01:02:16;;;;;;;;;;;;;;;18.86;64.20;99656.38;4958584;28;20384;-79
2021/05/02 01:05:09;;;;;;;;;;;;;;;18.86;64.67;99659.16;4938310;29;20309;-78
2021/05/02 01:07:57;;;;;;;;;;;;;;;18.83;65.24;99660.75;4955058;28;19915;-80
2021/05/02 01:10:44;;;;;;;;;;;;;;;18.83;65.31;99663.50;4959404;28;19914;-77
2021/05/02 01:13:34;;;;;;;;;;;;;;;18.82;65.41;99669.38;4957331;28;19914;-77
2021/05/02 01:16:20;;;;;;;;;;;;;;;18.81;65.24;99660.34;4961465;28;19915;-78
2021/05/02 01:19:08;;;;;;;;;;;;;;;18.80;65.40;99656.00;4957011;28;19918;-79
2021/05/02 01:22:12;;;;;;;;;;;;;;;18.80;65.21;99667.03;4955649;28;19914;-78
2021/05/02 01:24:57;;;;;;;;;;;;;;;18.79;65.11;99657.97;4936583;29;20364;-78
2021/05/02 01:27:41;;;;;;;;;;;;;;;18.79;64.92;99670.97;4938404;29;19915;-78
2021/05/02 01:30:26;;;;;;;;;;;;;;;18.78;64.70;99674.91;4950748;29;20001;-78
2021/05/02 01:33:30;;;;;;;;;;;;;;;18.78;64.76;99672.16;4958369;28;19914;-78
2021/05/02 01:36:16;;;;;;;;;;;;;;;18.76;64.67;99671.75;4955614;28;20292;-78
2021/05/02 01:39:03;;;;;;;;;;;;;;;18.76;64.79;99672.53;4959692;28;19914;-78
2021/05/02 01:41:47;;;;;;;;;;;;;;;18.77;64.55;99670.59;4939039;29;20330;-77
2021/05/02 01:44:32;;;;;;;;;;;;;;;18.76;64.82;99671.75;4937028;29;19915;-77
2021/05/02 01:47:18;;;;;;;;;;;;;;;18.77;64.85;99678.84;4940812;29;19919;-78
2021/05/02 01:50:05;;;;;;;;;;;;;;;18.77;64.77;99671.38;4944229;29;20280;-79
2021/05/02 01:52:51;;;;;;;;;;;;;;;18.78;64.52;99667.44;4954647;28;19928;-81
2021/05/02 01:55:37;;;;;;;;;;;;;;;18.78;64.79;99669.41;4959764;28;19914;-79
2021/05/02 01:58:22;;;;;;;;;;;;;;;18.76;64.80;99675.31;4957825;28;20373;-75
2021/05/02 02:01:09;;;;;;;;;;;;;;;18.77;64.77;99676.88;4955833;28;19914;-76
2021/05/02 02:03:56;;;;;;;;;;;;;;;18.77;64.62;99676.88;4968118;28;19914;-77
2021/05/02 02:06:41;;;;;;;;;;;;;;;18.76;64.50;99672.53;4976796;28;19918;-76
2021/05/02 02:09:28;;;;;;;;;;;;;;;18.77;64.37;99693.41;4976065;28;19918;-76
2021/05/02 02:12:13;;;;;;;;;;;;;;;18.76;64.70;99694.59;4979133;28;20372;-77
2021/05/02 02:14:58;;;;;;;;;;;;;;;18.77;64.44;99684.34;4977508;28;19913;-77
2021/05/02 02:17:43;;;;;;;;;;;;;;;18.77;64.57;99698.13;4974928;28;19914;-76
2021/05/02 02:20:29;;;;;;;;;;;;;;;18.77;64.66;99692.63;4983490;28;19917;-78
2021/05/02 02:23:19;;;;;;;;;;;;;;;18.78;64.38;99694.97;4976117;28;19918;-77
2021/05/02 02:26:48;;;;;;;;;;;;;;;18.78;64.67;99699.69;4965475;28;19918;-79
2021/05/02 02:29:35;;;;;;;;;;;;;;;18.78;64.36;99696.94;4980956;28;19914;-77
2021/05/02 02:32:20;;;;;;;;;;;;;;;18.77;64.33;99696.16;4978694;28;19914;-77
2021/05/02 02:35:06;;;;;;;;;;;;;;;18.77;64.30;99701.66;4982600;28;19918;-77
2021/05/02 02:37:54;;;;;;;;;;;;;;;18.77;64.17;99696.16;4979147;28;19914;-76
2021/05/02 02:40:39;;;;;;;;;;;;;;;18.77;64.21;99706.38;4977556;28;19943;-77
2021/05/02 02:43:25;;;;;;;;;;;;;;;18.76;64.37;99704.81;4981225;28;19918;-77
2021/05/02 02:46:15;;;;;;;;;;;;;;;18.75;64.38;99701.25;4980973;28;19918;-78
2021/05/02 02:49:01;;;;;;;;;;;;;;;18.75;64.33;99715.03;4977647;28;19914;-76
2021/05/02 02:51:47;;;;;;;;;;;;;;;18.73;64.45;99709.16;4982390;28;19918;-76
2021/05/02 02:54:32;;;;;;;;;;;;;;;18.72;64.40;99715.84;4978122;28;19914;-77
2021/05/02 02:57:20;;;;;;;;;;;;;;;18.70;64.44;99728.41;4977149;28;19914;-76
2021/05/02 03:00:06;;;;;;;;;;;;;;;18.70;64.46;99718.19;4976497;28;19918;-76
2021/05/02 03:02:54;;;;;;;;;;;;;;;18.69;64.52;99704.84;4980065;28;19914;-77
2021/05/02 03:05:39;;;;;;;;;;;;;;;18.69;64.44;99697.34;4962160;28;19922;-76
2021/05/02 03:08:26;;;;;;;;;;;;;;;18.68;64.28;99704.03;4977135;28;19914;-76
2021/05/02 03:11:11;;;;;;;;;;;;;;;18.69;64.38;99707.59;4979381;28;19914;-76
2021/05/02 03:13:56;;;;;;;;;;;;;;;18.69;64.51;99716.59;4978030;28;20295;-79
2021/05/02 03:16:43;;;;;;;;;;;;;;;18.67;64.64;99716.22;4975684;28;20387;-78
2021/05/02 03:19:32;;;;;;;;;;;;;;;18.66;64.61;99714.66;4979994;28;20284;-78
2021/05/02 03:22:23;;;;;;;;;;;;;;;18.65;64.70;99731.56;4978107;28;19914;-77
2021/05/02 03:25:10;;;;;;;;;;;;;;;18.64;64.98;99733.53;4981468;28;19914;-76
2021/05/02 03:28:06;;;;;;;;;;;;;;;18.62;64.78;99733.16;4977628;28;19918;-77
2021/05/02 03:30:51;;;;;;;;;;;;;;;18.62;65.10;99733.16;4976464;28;19922;-78
2021/05/02 03:33:39;;;;;;;;;;;;;;;18.61;65.00;99737.06;4979625;28;19917;-78
2021/05/02 03:36:28;;;;;;;;;;;;;;;18.60;65.13;99734.72;4978159;28;19914;-78
2021/05/02 03:39:14;;;;;;;;;;;;;;;18.58;64.91;99735.13;4958087;28;19914;-77
2021/05/02 03:42:00;;;;;;;;;;;;;;;18.59;64.95;99744.16;4961336;28;20380;-79
2021/05/02 03:44:45;;;;;;;;;;;;;;;18.58;65.04;99742.59;4972156;28;19914;-81
2021/05/02 03:47:30;;;;;;;;;;;;;;;18.58;65.09;99743.38;4978511;28;20307;-81
2021/05/02 03:50:14;;;;;;;;;;;;;;;18.57;65.04;99757.53;4982367;28;19914;-80
2021/05/02 03:53:36;;;;;;;;;;;;;;;18.56;64.83;99762.25;4977081;28;19913;-79
2021/05/02 03:56:34;;;;;;;;;;;;;;;18.55;64.81;99766.19;4963165;28;20420;-78
2021/05/02 03:59:20;;;;;;;;;;;;;;;18.55;65.04;99771.69;4962328;28;19922;-79
2021/05/02 04:02:04;;;;;;;;;;;;;;;18.56;65.02;99775.22;4976892;28;20311;-80
2021/05/02 04:04:49;;;;;;;;;;;;;;;18.55;65.01;99771.69;4975952;28;20296;-80
2021/05/02 04:07:33;;;;;;;;;;;;;;;18.55;64.86;99779.16;4965068;28;19918;-81
2021/05/02 04:10:18;;;;;;;;;;;;;;;18.54;64.71;99775.59;4977966;28;19914;-81
2021/05/02 04:13:03;;;;;;;;;;;;;;;18.54;64.87;99774.84;4981432;28;19935;-80
2021/05/02 04:15:47;;;;;;;;;;;;;;;18.53;64.80;99776.00;4978247;28;19914;-79
2021/05/02 04:18:31;;;;;;;;;;;;;;;18.51;64.85;99784.63;4977520;28;19914;-81
2021/05/02 04:21:16;;;;;;;;;;;;;;;18.50;64.71;99791.31;4975899;28;19926;-77
2021/05/02 04:27:04;;;;;;;;;;;;;;;18.49;65.09;99784.22;4977040;28;19918;-79
2021/05/02 04:29:49;;;;;;;;;;;;;;;18.49;65.11;99789.72;4981346;28;19914;-79
2021/05/02 04:32:52;;;;;;;;;;;;;;;18.50;65.39;99790.53;4974872;28;19918;-79
2021/05/02 04:35:38;;;;;;;;;;;;;;;18.49;65.35;99800.00;4975932;28;19914;-77
2021/05/02 04:38:23;;;;;;;;;;;;;;;18.48;65.07;99806.66;4965400;28;19914;-78
2021/05/02 04:41:08;;;;;;;;;;;;;;;18.47;65.04;99803.13;4978457;28;19914;-78
2021/05/02 04:44:12;;;;;;;;;;;;;;;18.45;65.05;99810.97;4975423;28;20300;-78
2021/05/02 04:46:57;;;;;;;;;;;;;;;18.42;65.16;99809.00;4979451;28;19918;-77
2021/05/02 04:49:41;;;;;;;;;;;;;;;18.39;65.37;99807.03;4977238;28;19914;-78
2021/05/02 04:52:26;;;;;;;;;;;;;;;18.38;65.28;99817.28;4991518;28;19918;-79
2021/05/02 04:55:10;;;;;;;;;;;;;;;18.39;65.59;99810.56;4960456;28;20296;-79
2021/05/02 04:57:57;;;;;;;;;;;;;;;17.81;65.31;99810.75;4976290;28;19914;-80
2021/05/02 05:00:42;;;;;;;;;;;;;;;17.82;65.40;99817.06;4994865;28;20372;-78
2021/05/02 05:03:27;;;;;;;;;;;;;;;17.60;66.02;99816.16;4990888;28;20001;-80
2021/05/02 05:06:12;;;;;;;;;;;;;;;17.50;64.91;99803.88;4978004;28;19918;-80
2021/05/02 05:08:56;;;;;;;;;;;;;;;17.35;65.59;99820.66;4982117;28;19918;-79
2021/05/02 05:11:41;;;;;;;;;;;;;;;16.72;68.03;99824.47;4981406;28;19914;-82
2021/05/02 05:14:25;;;;;;;;;;;;;;;17.09;67.74;99825.19;4975708;28;19914;-79
2021/05/02 05:17:10;;;;;;;;;;;;;;;17.28;66.79;99826.91;4975635;28;19913;-82
2021/05/02 05:20:13;;;;;;;;;;;;;;;17.39;66.61;99829.72;4978044;28;19914;-80
2021/05/02 05:22:57;;;;;;;;;;;;;;;17.43;66.41;99842.31;4972845;28;19918;-81
2021/05/02 05:25:42;;;;;;;;;;;;;;;17.54;66.61;99839.63;4974296;28;19922;-80
2021/05/02 05:28:26;;;;;;;;;;;;;;;17.59;66.59;99853.06;4978831;28;20419;-81
2021/05/02 05:31:11;;;;;;;;;;;;;;;17.51;66.08;99863.19;4976206;28;19914;-79
2021/05/02 05:33:56;;;;;;;;;;;;;;;17.55;65.97;99871.47;4974337;28;20391;-79
2021/05/02 05:39:44;;;;;;;;;;;;;;;17.50;65.89;99885.56;4976099;28;20304;-79
2021/05/02 05:42:28;;;;;;;;;;;;;;;17.46;65.81;99882.78;4973758;28;19914;-80
2021/05/02 05:45:13;;;;;;;;;;;;;;;17.48;65.76;99885.94;4977902;28;19913;-78
2021/05/02 05:47:58;;;;;;;;;;;;;;;17.49;66.03;99892.22;4976238;28;19918;-77
2021/05/02 05:50:47;;;;;;;;;;;;;;;17.52;65.82;99902.47;4959744;28;19914;-77
2021/05/02 05:53:33;;;;;;;;;;;;;;;17.52;66.00;99911.50;4966338;28;19914;-79
2021/05/02 05:56:38;;;;;;;;;;;;;;;17.48;66.11;99907.94;4954523;29;19922;-78
2021/05/02 05:59:23;;;;;;;;;;;;;;;17.44;66.24;99914.56;4972649;28;19914;-79
2021/05/02 06:02:26;;;;;;;;;;;;;;;17.42;66.09;99914.94;4976891;28;19914;-78
2021/05/02 06:05:11;;;;;;;;;;;;;;;17.43;66.03;99922.03;5015935;23;19938;-75
2021/05/02 06:07:56;;;;;;;;;;;;;;;17.47;66.17;99922.84;4954978;28;19922;-76
2021/05/02 06:10:41;;;;;;;;;;;;;;;17.49;66.23;99931.50;4975843;28;19914;-76
2021/05/02 06:16:30;;;;;;;;;;;;;;;17.50;66.53;99935.03;4976140;28;19922;-77
2021/05/02 06:19:15;;;;;;;;;;;;;;;17.49;66.62;99947.22;4977645;28;19914;-77
2021/05/02 06:21:59;;;;;;;;;;;;;;;17.52;66.76;99949.22;4963830;28;19914;-77
2021/05/02 06:27:47;;;;;;;;;;;;;;;17.54;66.26;99938.59;4970432;28;19927;-77
2021/05/02 06:30:50;;;;;;;;;;;;;;;17.51;66.55;99959.41;4972061;28;19914;-76
2021/05/02 06:33:35;;;;;;;;;;;;;;;17.49;66.34;99963.69;4976371;28;19914;-75
2021/05/02 06:36:20;;;;;;;;;;;;;;;17.46;66.20;99965.25;4957671;29;19915;-78
2021/05/02 06:39:05;;;;;;;;;;;;;;;17.43;66.37;99960.50;4971172;28;19914;-76
2021/05/02 06:41:50;;;;;;;;;;;;;;;17.41;66.15;99971.09;4973267;28;20320;-78
2021/05/02 06:44:34;;;;;;;;;;;;;;;17.42;66.25;99967.16;4970279;28;19913;-77
2021/05/02 06:47:19;;;;;;;;;;;;;;;17.35;66.34;99969.06;4971988;28;19918;-77
2021/05/02 06:50:04;;;;;;;;;;;;;;;17.44;66.31;99977.78;4973298;28;19915;-79
2021/05/02 06:52:49;;;;;;;;;;;;;;;17.46;66.36;99986.47;4970007;28;19914;-77
2021/05/02 06:55:52;;;;;;;;;;;;;;;17.40;66.38;99987.97;4972802;28;19914;-76
2021/05/02 06:58:36;;;;;;;;;;;;;;;17.38;66.06;99990.28;4976951;28;19917;-77
2021/05/02 07:01:22;;;;;;;;;;;;;;;17.40;66.04;99997.00;4975386;28;19914;-77
2021/05/02 07:04:31;;;;;;;;;;;;;;;17.39;66.22;99997.38;4978066;28;19913;-77
2021/05/02 07:10:20;;;;;;;;;;;;;;;17.41;66.18;99992.31;4996772;28;19914;-79
2021/05/02 07:13:05;;;;;;;;;;;;;;;17.39;65.94;99998.16;5000536;28;19913;-80
2021/05/02 07:15:51;;;;;;;;;;;;;;;17.41;66.09;100000.56;4995803;28;19913;-79
2021/05/02 07:18:37;;;;;;;;;;;;;;;17.40;66.00;100005.25;4996643;28;19914;-79
2021/05/02 07:21:22;;;;;;;;;;;;;;;17.35;65.92;100013.06;5000100;28;20292;-78
2021/05/02 07:24:07;;;;;;;;;;;;;;;17.39;65.94;100008.38;4997724;28;20303;-78
2021/05/02 07:26:53;;;;;;;;;;;;;;;17.41;65.69;100023.34;4996037;28;19918;-78
2021/05/02 07:29:38;;;;;;;;;;;;;;;17.38;65.45;100020.53;5000071;28;19913;-77
2021/05/02 07:32:23;;;;;;;;;;;;;;;17.40;65.89;100029.19;4997976;28;20392;-78
2021/05/02 07:35:08;;;;;;;;;;;;;;;17.40;65.93;100027.25;4996588;28;19914;-76
2021/05/02 07:37:53;;;;;;;;;;;;;;;17.42;65.84;100035.13;5000305;28;19914;-77
2021/05/02 07:40:38;;;;;;;;;;;;;;;17.44;65.79;100039.06;4998473;28;19913;-78
2021/05/02 07:43:22;;;;;;;;;;;;;;;17.46;65.83;100036.72;4996491;28;19913;-78
2021/05/02 07:46:08;;;;;;;;;;;;;;;17.49;65.52;100040.66;5000115;28;19913;-76
2021/05/02 07:48:53;;;;;;;;;;;;;;;17.51;65.39;100041.09;4998488;28;19914;-78
2021/05/02 07:51:37;;;;;;;;;;;;;;;17.48;64.95;100039.88;4996716;28;20302;-81
2021/05/02 07:54:21;;;;;;;;;;;;;;;17.49;65.13;100043.41;4999150;28;19913;-78
2021/05/02 07:57:06;;;;;;;;;;;;;;;17.54;65.17;100054.06;4998628;28;19918;-77
2021/05/02 07:59:52;;;;;;;;;;;;;;;17.53;65.00;100061.53;4996950;28;20114;-78
2021/05/02 08:02:41;;;;;;;;;;;;;;;17.53;64.49;100069.78;5000388;28;19917;-77
2021/05/02 08:05:26;;;;;;;;;;;;;;;17.57;64.55;100075.34;4995901;28;19922;-77
2021/05/02 08:08:30;;;;;;;;;;;;;;;17.60;64.70;100074.59;4994828;28;20371;-78
2021/05/02 08:11:14;;;;;;;;;;;;;;;17.60;64.53;100076.56;4999439;28;19914;-77
2021/05/02 08:13:59;;;;;;;;;;;;;;;17.62;64.37;100083.28;4997663;28;19914;-77
2021/05/02 08:16:43;;;;;;;;;;;;;;;17.60;64.13;100082.06;4995081;28;19914;-78
2021/05/02 08:19:48;;;;;;;;;;;;;;;17.60;63.97;100080.09;4999556;28;19914;-78
2021/05/02 08:22:32;;;;;;;;;;;;;;;17.64;63.48;100085.63;4997015;28;19914;-77
2021/05/02 08:25:17;;;;;;;;;;;;;;;17.64;63.44;100086.41;4980557;28;19917;-78
2021/05/02 08:28:02;;;;;;;;;;;;;;;17.64;63.13;100091.91;4998908;28;20408;-79
2021/05/02 08:30:47;;;;;;;;;;;;;;;17.67;63.11;100093.13;4996954;28;20380;-78
2021/05/02 08:33:32;;;;;;;;;;;;;;;17.67;63.64;100098.63;4994703;28;19914;-76
2021/05/02 08:36:17;;;;;;;;;;;;;;;17.73;63.49;100102.59;4998906;28;19914;-77
2021/05/02 08:39:02;;;;;;;;;;;;;;;17.73;63.31;100092.38;4996958;28;19914;-77
2021/05/02 08:41:47;;;;;;;;;;;;;;;17.79;63.29;100099.13;4995194;28;19913;-77
2021/05/02 08:44:31;;;;;;;;;;;;;;;17.80;63.23;100095.22;4997628;28;20295;-78
2021/05/02 08:47:16;;;;;;;;;;;;;;;17.85;63.26;100097.63;4997217;28;19921;-78
2021/05/02 08:50:11;;;;;;;;;;;;;;;17.86;63.33;100088.22;4994830;28;19918;-78
2021/05/02 08:52:56;;;;;;;;;;;;;;;17.94;63.29;100098.09;4998885;28;19913;-79
2021/05/02 08:55:42;;;;;;;;;;;;;;;17.94;63.08;100095.34;4994352;28;19913;-76
2021/05/02 08:58:26;;;;;;;;;;;;;;;17.97;62.88;100091.06;4995094;28;19918;-77
2021/05/02 09:01:11;;;;;;;;;;;;;;;18.06;62.66;100109.97;4984201;28;19914;-78
2021/05/02 09:03:56;;;;;;;;;;;;;;;18.11;63.08;100115.13;4996710;28;20399;-79
2021/05/02 09:07:00;;;;;;;;;;;;;;;18.16;63.54;100114.78;4995208;28;19918;-77
2021/05/02 09:09:44;;;;;;;;;;;;;;;18.20;62.65;100121.91;4997969;28;19914;-78
2021/05/02 09:13:02;;;;;;;;;;;;;;;18.27;62.74;100118.41;4993179;28;19913;-78
2021/05/02 09:15:55;;;;;;;;;;;;;;;18.99;62.15;100120.50;4993770;28;20368;-78
2021/05/02 09:18:48;;;;;;;;;;;;;;;24.73;42.35;100122.31;5001623;28;19913;-78
2021/05/02 09:21:32;;;;;;;;;;;;;;;27.64;34.85;100139.19;4999227;28;19913;-76
2021/05/02 09:24:22;;;;;;;;;;;;;;;27.62;33.58;100138.84;5000236;28;19914;-75
2021/05/02 09:27:12;;;;;;;;;;;;;;;24.75;38.90;100142.94;4996945;28;20399;-76
2021/05/02 09:30:13;;;;;;;;;;;;;;;23.97;40.05;100133.13;4995823;28;19918;-78
2021/05/02 09:32:58;;;;;;;;;;;;;;;30.08;27.98;100143.78;4998617;28;19913;-78
2021/05/02 09:35:49;;;;;;;;;;;;;;;29.61;28.55;100149.66;4994398;28;19914;-77
2021/05/02 09:38:34;;;;;;;;;;;;;;;26.73;33.63;100146.91;5002836;28;19913;-77
2021/05/02 09:41:18;;;;;;;;;;;;;;;23.71;40.46;100143.03;5000173;28;19914;-77
2021/05/02 09:44:22;;;;;;;;;;;;;;;22.04;44.41;100138.41;4996420;28;19913;-75
2021/05/02 09:47:26;;;;;;;;;;;;;;;24.37;38.00;100136.06;5001942;28;19921;-77
2021/05/02 09:50:18;;;;;;;;;;;;;;;26.54;32.83;100135.88;4998672;28;19913;-78
2021/05/02 09:53:03;;;;;;;;;;;;;;;27.52;30.20;100137.16;5001331;28;20402;-77
2021/05/02 09:55:48;;;;;;;;;;;;;;;26.93;31.43;100135.63;5010022;28;20311;-77
2021/05/02 09:58:33;;;;;;;;;;;;;;;31.23;26.02;100144.88;5004671;28;19913;-76
2021/05/02 10:01:18;;;;;;;;;;;;;;;32.51;23.86;100153.59;4998149;28;19913;-76
2021/05/02 10:04:03;;;;;;;;;;;;;;;31.22;26.27;100156.59;5003161;28;19914;-76
2021/05/02 10:06:47;;;;;;;;;;;;;;;29.29;28.93;100153.63;5002039;28;20364;-75
2021/05/02 10:09:32;;;;;;;;;;;;;;;24.13;38.08;100140.78;4981650;28;20318;-75
2021/05/02 10:12:17;;;;;;;;;;;;;;;25.91;35.10;100153.69;4979893;28;19914;-76
2021/05/02 10:15:02;;;;;;;;;;;;;;;29.71;28.86;100151.25;4986499;28;19914;-76
2021/05/02 10:17:51;;;;;;;;;;;;;;;27.87;31.83;100152.84;4984752;28;19913;-76
2021/05/02 10:20:36;;;;;;;;;;;;;;;21.54;45.46;100145.41;4989725;28;20295;-76
2021/05/02 10:23:22;;;;;;;;;;;;;;;20.83;47.46;100151.16;4994960;28;20379;-75
2021/05/02 10:26:06;;;;;;;;;;;;;;;20.02;51.39;100152.75;4983599;28;19913;-76
2021/05/02 10:28:51;;;;;;;;;;;;;;;19.58;52.99;100150.28;5016771;28;20375;-76
2021/05/02 10:31:42;;;;;;;;;;;;;;;19.20;53.48;100150.88;4994458;28;19914;-76
2021/05/02 10:34:27;;;;;;;;;;;;;;;19.41;52.84;100152.94;4990275;28;19913;-76
2021/05/02 10:37:27;;;;;;;;;;;;;;;19.67;50.97;100152.66;4981344;28;20388;-75
2021/05/02 10:40:32;;;;;;;;;;;;;;;19.23;52.52;100158.41;4980776;28;19914;-76
2021/05/02 10:43:36;;;;;;;;;;;;;;;19.11;53.17;100153.22;5001309;28;20388;-76
2021/05/02 10:46:39;;;;;;;;;;;;;;;19.28;52.50;100155.28;4998783;28;19914;-76
2021/05/02 10:49:24;;;;;;;;;;;;;;;20.53;48.75;100161.84;5001542;28;19917;-75
2021/05/02 10:52:45;;;;;;;;;;;;;;;23.16;42.49;100150.84;4995741;28;19913;-76
2021/05/02 10:55:48;;;;;;;;;;;;;;;24.37;39.34;100149.97;4916974;29;19922;-77
2021/05/02 10:58:33;;;;;;;;;;;;;;;27.89;32.60;100161.53;4979508;28;19914;-77
2021/05/02 11:01:27;;;;;;;;;;;;;;;26.78;34.69;100151.94;4978000;28;19918;-77
2021/05/02 11:04:11;;;;;;;;;;;;;;;24.43;39.31;100162.19;4997073;28;19914;-76
2021/05/02 11:06:56;;;;;;;;;;;;;;;23.24;41.80;100157.88;5007405;28;19918;-77
2021/05/02 11:09:53;;;;;;;;;;;;;;;24.26;40.48;100152.94;4982698;28;19913;-76
2021/05/02 11:12:39;;;;;;;;;;;;;;;21.11;46.73;100145.56;4991232;28;19914;-76
2021/05/02 11:15:27;;;;;;;;;;;;;;;20.15;48.92;100153.16;4995418;28;19913;-77
2021/05/02 11:18:21;;;;;;;;;;;;;;;19.83;49.40;100146.78;4998255;28;20299;-76
2021/05/02 11:21:06;;;;;;;;;;;;;;;19.80;50.44;100148.38;5000755;28;20620;-75
2021/05/02 11:23:54;;;;;;;;;;;;;;;20.17;49.81;100156.28;4998325;28;20388;-76
2021/05/02 11:27:02;;;;;;;;;;;;;;;19.94;49.88;100147.59;4988477;28;19922;-75
2021/05/02 11:32:36;;;;;;;;;;;;;;;19.45;51.12;100145.53;4989264;28;19913;-75
2021/05/02 11:35:41;;;;;;;;;;;;;;;19.41;51.41;100139.94;4992989;28;20383;-75
2021/05/02 11:38:36;;;;;;;;;;;;;;;19.25;51.59;100130.44;4988125;28;19913;-77
2021/05/02 11:41:21;;;;;;;;;;;;;;;19.46;51.62;100138.81;4967991;28;19914;-76
2021/05/02 11:44:10;;;;;;;;;;;;;;;19.95;50.45;100138.94;4984120;28;19917;-76
2021/05/02 11:46:54;;;;;;;;;;;;;;;20.08;50.09;100142.09;4997796;28;19913;-76
2021/05/02 11:52:47;;;;;;;;;;;;;;;19.98;50.53;100143.66;4998822;28;19913;-75
2021/05/02 11:55:37;;;;;;;;;;;;;;;19.91;50.87;100148.41;4997517;28;19914;-75
2021/05/02 11:58:21;;;;;;;;;;;;;;;19.89;50.75;100142.47;5000802;28;19914;-76
2021/05/02 12:01:27;;;;;;;;;;;;;;;19.83;51.24;100142.06;4998603;28;19917;-76
2021/05/02 12:04:16;;;;;;;;;;;;;;;19.82;51.34;100134.16;4996028;28;19917;-77
2021/05/02 12:07:01;;;;;;;;;;;;;;;19.81;51.27;100140.91;5002620;23;19926;-76
2021/05/02 12:09:46;;;;;;;;;;;;;;;19.78;51.59;100133.38;4956360;28;19918;-77
2021/05/02 12:12:37;;;;;;;;;;;;;;;19.75;51.76;100139.69;4960201;28;19918;-77
2021/05/02 12:15:22;;;;;;;;;;;;;;;19.74;51.70;100143.63;4958416;28;20284;-77
2021/05/02 12:18:24;;;;;;;;;;;;;;;19.76;51.45;100142.03;4937078;29;19927;-77
2021/05/02 12:21:17;;;;;;;;;;;;;;;19.78;51.11;100136.16;4940297;29;19915;-77
2021/05/02 12:24:04;;;;;;;;;;;;;;;19.79;50.76;100141.28;4951365;28;19914;-77
2021/05/02 12:26:53;;;;;;;;;;;;;;;19.79;50.93;100132.22;4954064;28;20373;-77
2021/05/02 12:29:39;;;;;;;;;;;;;;;19.80;50.63;100133.78;4943163;28;19914;-76
2021/05/02 12:32:25;;;;;;;;;;;;;;;19.77;50.58;100132.59;4948368;29;19914;-77
2021/05/02 12:35:28;;;;;;;;;;;;;;;19.78;50.67;100133.38;4956528;29;19914;-76
2021/05/02 12:38:23;;;;;;;;;;;;;;;19.79;50.56;100132.22;4960460;28;19914;-77
2021/05/02 12:41:19;;;;;;;;;;;;;;;19.82;50.66;100132.22;4958849;28;19914;-81
2021/05/02 12:44:14;;;;;;;;;;;;;;;19.85;50.92;100125.94;4957695;28;20309;-78
2021/05/02 12:47:00;;;;;;;;;;;;;;;19.86;50.59;100127.47;4950995;29;19914;-79
2021/05/02 12:52:58;;;;;;;;;;;;;;;19.80;50.73;100136.56;4959557;28;19914;-78
2021/05/02 12:55:56;;;;;;;;;;;;;;;19.80;50.57;100131.81;4958912;28;19914;-78
2021/05/02 12:58:43;;;;;;;;;;;;;;;19.79;50.68;100133.00;4959041;28;19918;-76
2021/05/02 13:01:28;;;;;;;;;;;;;;;19.79;50.71;100129.44;4947291;28;19914;-76
2021/05/02 13:04:41;;;;;;;;;;;;;;;19.83;50.76;100130.25;4935698;29;19978;-76
2021/05/02 13:07:30;;;;;;;;;;;;;;;19.81;51.08;100129.84;4936468;29;20289;-76
2021/05/02 13:10:23;;;;;;;;;;;;;;;19.80;50.79;100131.03;4936065;29;19914;-76
2021/05/02 13:13:27;;;;;;;;;;;;;;;19.81;50.66;100138.13;4958663;28;19914;-76
2021/05/02 13:16:11;;;;;;;;;;;;;;;19.80;50.24;100136.56;4936659;29;19914;-76
2021/05/02 13:18:56;;;;;;;;;;;;;;;19.81;50.51;100132.63;4940465;29;19914;-76
2021/05/02 13:21:40;;;;;;;;;;;;;;;19.83;49.91;100133.78;4938612;29;20373;-76
2021/05/02 13:24:25;;;;;;;;;;;;;;;19.81;49.77;100130.63;4936849;29;19914;-76
2021/05/02 13:27:09;;;;;;;;;;;;;;;19.83;49.68;100121.97;4935167;29;19919;-76
2021/05/02 13:30:12;;;;;;;;;;;;;;;19.81;49.85;100127.09;4938830;29;19915;-76
2021/05/02 13:33:07;;;;;;;;;;;;;;;19.80;50.11;100125.53;4936115;29;20305;-75
2021/05/02 13:35:51;;;;;;;;;;;;;;;19.80;50.12;100131.81;4939489;29;20332;-75
2021/05/02 13:38:36;;;;;;;;;;;;;;;19.81;49.99;100121.59;4937745;29;19915;-75
2021/05/02 13:41:20;;;;;;;;;;;;;;;19.82;49.35;100118.41;4935077;29;20461;-76
2021/05/02 13:44:07;;;;;;;;;;;;;;;19.82;50.06;100112.88;4935219;29;19919;-75
2021/05/02 13:46:53;;;;;;;;;;;;;;;19.82;49.83;100118.41;4937644;29;19922;-76
2021/05/02 13:49:39;;;;;;;;;;;;;;;19.82;49.25;100117.63;4935597;29;19918;-75
2021/05/02 13:52:23;;;;;;;;;;;;;;;19.83;49.57;100116.44;4939810;29;19914;-76
2021/05/02 13:55:08;;;;;;;;;;;;;;;19.81;49.43;100116.81;4938031;29;19914;-75
2021/05/02 13:57:53;;;;;;;;;;;;;;;19.83;48.85;100113.69;4936078;29;19914;-76
2021/05/02 14:00:38;;;;;;;;;;;;;;;19.84;49.51;100105.03;4940015;29;19915;-76
2021/05/02 14:03:25;;;;;;;;;;;;;;;19.84;49.12;100110.53;4937579;29;19915;-75
2021/05/02 14:06:10;;;;;;;;;;;;;;;19.83;49.04;100108.16;4936257;29;20293;-76
2021/05/02 14:08:55;;;;;;;;;;;;;;;19.84;49.25;100113.31;4939930;29;19936;-75
2021/05/02 14:11:40;;;;;;;;;;;;;;;19.83;49.57;100122.75;4938128;29;19914;-75
2021/05/02 14:14:25;;;;;;;;;;;;;;;19.83;49.92;100108.97;4937570;29;19915;-75
2021/05/02 14:17:10;;;;;;;;;;;;;;;19.79;48.39;100105.41;4962912;28;19914;-75
2021/05/02 14:19:55;;;;;;;;;;;;;;;19.80;49.68;100103.44;4980845;28;20384;-75
2021/05/02 14:22:39;;;;;;;;;;;;;;;19.80;49.85;100109.75;4978752;28;19914;-75
2021/05/02 14:25:23;;;;;;;;;;;;;;;19.78;50.03;100100.28;4982690;28;19918;-76
2021/05/02 14:28:08;;;;;;;;;;;;;;;19.74;50.09;100102.25;4980888;28;19918;-76
2021/05/02 14:31:11;;;;;;;;;;;;;;;19.74;50.06;100110.53;4977246;28;19918;-75
2021/05/02 14:33:55;;;;;;;;;;;;;;;19.72;50.39;100115.63;4982042;28;19914;-76
2021/05/02 14:37:09;;;;;;;;;;;;;;;19.72;50.19;100113.66;4965543;28;19914;-76
2021/05/02 14:39:55;;;;;;;;;;;;;;;19.75;50.40;100120.38;4968383;28;19914;-75
2021/05/02 14:42:40;;;;;;;;;;;;;;;19.74;50.50;100122.34;4980540;28;20369;-75
2021/05/02 14:45:24;;;;;;;;;;;;;;;19.76;50.47;100122.72;4977912;28;19914;-75
2021/05/02 14:48:10;;;;;;;;;;;;;;;19.72;50.43;100130.22;4976969;28;19918;-74
2021/05/02 14:50:55;;;;;;;;;;;;;;;19.71;50.70;100131.38;4980584;28;20395;-75
2021/05/02 14:53:58;;;;;;;;;;;;;;;19.72;50.68;100129.44;4964218;28;19913;-75
2021/05/02 14:56:43;;;;;;;;;;;;;;;19.73;50.90;100137.31;4979450;28;20319;-75